createdAt,value
2018-01-10T00:00:30.533Z,86.15
2018-01-10T00:01:30.858Z,86.26
2018-01-10T00:02:31.171Z,85.86
2018-01-10T00:03:30.539Z,85.88
2018-01-10T00:04:30.853Z,86.03
2018-01-10T00:05:31.097Z,86.11
2018-01-10T00:06:30.533Z,85.68
2018-01-10T00:07:30.869Z,86.08
2018-01-10T00:08:31.211Z,85.67
2018-01-10T00:09:30.623Z,85.68
2018-01-10T00:10:31.015Z,86.12
2018-01-10T00:11:30.421Z,86.01
2018-01-10T00:12:30.631Z,85.83
2018-01-10T00:13:30.778Z,85.77
2018-01-10T00:14:31.068Z,85.87
2018-01-10T00:15:30.376Z,85.73
2018-01-10T00:16:31.085Z,86.04
2018-01-10T00:17:31.338Z,86.05
2018-01-10T00:18:30.789Z,85.85
2018-01-10T00:19:30.943Z,86.13
2018-01-10T00:20:31.275Z,85.81
2018-01-10T00:21:30.458Z,86.07
2018-01-10T00:22:30.620Z,85.89
2018-01-10T00:23:31.019Z,85.89
2018-01-10T00:24:31.264Z,86.19
2018-01-10T00:25:30.476Z,85.95
2018-01-10T00:26:30.637Z,85.73
2018-01-10T00:27:30.833Z,86.23
2018-01-10T00:28:30.988Z,86.46
2018-01-10T00:29:31.187Z,86.15
2018-01-10T00:30:30.635Z,86.5
2018-01-10T00:31:30.807Z,86.38
2018-01-10T00:32:31.106Z,86.27
2018-01-10T00:33:30.344Z,86.26
2018-01-10T00:34:30.720Z,86.41
2018-01-10T00:35:30.996Z,86.21
2018-01-10T00:38:31.286Z,86.53
2018-01-10T00:39:30.746Z,86.15
2018-01-10T00:40:31.045Z,86.39
2018-01-10T00:41:30.514Z,86.69
2018-01-10T00:42:30.826Z,86.42
2018-01-10T00:43:31.223Z,86.43
2018-01-10T00:44:30.498Z,86.48
2018-01-10T00:45:30.787Z,86.45
2018-01-10T00:46:30.042Z,86.53
2018-01-10T00:47:30.425Z,86.51
2018-01-10T00:48:30.624Z,86.13
2018-01-10T00:49:29.811Z,86.69
2018-01-10T00:50:30.054Z,86.54
2018-01-10T00:51:30.761Z,86.89
2018-01-10T00:52:30.280Z,86.7
2018-01-10T00:53:30.596Z,86.68
2018-01-10T00:54:29.900Z,86.78
2018-01-10T00:55:30.290Z,87.23
2018-01-10T00:56:30.491Z,86.93
2018-01-10T00:57:29.806Z,86.98
2018-01-10T00:58:30.076Z,87.13
2018-01-10T00:59:30.485Z,86.59
2018-01-10T01:00:30.691Z,86.61
2018-01-10T01:01:29.913Z,86.73
2018-01-10T01:02:30.159Z,86.8
2018-01-10T01:03:29.872Z,87.36
2018-01-10T01:04:29.956Z,87.18
2018-01-10T01:05:30.157Z,87.06
2018-01-10T01:06:30.491Z,86.86
2018-01-10T01:07:29.918Z,87.15
2018-01-10T01:08:30.084Z,86.86
2018-01-10T01:09:30.320Z,86.75
2018-01-10T01:10:30.636Z,86.75
2018-01-10T01:11:29.878Z,87.04
2018-01-10T01:12:30.086Z,87.11
2018-01-10T01:13:30.201Z,87.29
2018-01-10T01:14:30.760Z,87.1
2018-01-10T01:15:30.150Z,87.25
2018-01-10T01:16:30.552Z,87.07
2018-01-10T01:17:29.930Z,86.92
2018-01-10T01:18:30.291Z,87.22
2018-01-10T01:19:29.810Z,87.17
2018-01-10T01:20:30.373Z,86.98
2018-01-10T01:21:29.846Z,87.44
2018-01-10T01:22:30.183Z,87.15
2018-01-10T01:23:29.493Z,86.74
2018-01-10T01:24:29.599Z,87.05
2018-01-10T01:25:29.855Z,86.87
2018-01-10T01:26:29.931Z,87.72
2018-01-10T01:27:30.123Z,87.07
2018-01-10T01:28:30.400Z,87.25
2018-01-10T01:29:29.737Z,87.63
2018-01-10T01:30:29.992Z,87.54
2018-01-10T01:31:30.184Z,87.76
2018-01-10T01:32:30.350Z,87.36
2018-01-10T01:33:29.616Z,87.21
2018-01-10T01:34:29.930Z,87.84
2018-01-10T01:35:30.092Z,87.54
2018-01-10T01:36:29.557Z,88.05
2018-01-10T01:37:29.746Z,88.11
2018-01-10T01:38:29.879Z,88.51
2018-01-10T01:39:30.100Z,88.62
2018-01-10T01:40:29.604Z,88.1
2018-01-10T01:41:29.848Z,88.11
2018-01-10T01:42:30.079Z,87.64
2018-01-10T01:43:30.303Z,87.63
2018-01-10T01:44:29.733Z,87.54
2018-01-10T01:45:29.955Z,88.04
2018-01-10T01:46:30.187Z,88.24
2018-01-10T01:47:29.595Z,88.14
2018-01-10T01:48:29.894Z,88.11
2018-01-10T01:49:30.163Z,88.09
2018-01-10T01:50:30.315Z,88.27
2018-01-10T01:51:30.473Z,87.95
2018-01-10T01:52:29.874Z,88.28
2018-01-10T01:53:30.519Z,87.7
2018-01-10T01:54:29.786Z,87.98
2018-01-10T01:55:30.098Z,87.91
2018-01-10T01:56:30.273Z,88.21
2018-01-10T01:57:30.469Z,88.12
2018-01-10T01:58:29.785Z,87.82
2018-01-10T01:59:30.085Z,88.83
2018-01-10T02:00:30.269Z,88.22
2018-01-10T02:01:30.468Z,88.91
2018-01-10T02:02:29.771Z,88.35
2018-01-10T02:03:29.963Z,88.46
2018-01-10T02:04:30.339Z,88.41
2018-01-10T02:05:29.761Z,88.64
2018-01-10T02:06:29.930Z,88.37
2018-01-10T02:07:30.172Z,88.44
2018-01-10T02:08:30.470Z,88.13
2018-01-10T02:09:30.053Z,88.08
2018-01-10T02:10:30.822Z,88.01
2018-01-10T02:13:41.076Z,87.8
2018-01-10T02:14:30.399Z,87.96
2018-01-10T02:15:29.689Z,88.14
2018-01-10T02:16:29.823Z,87.54
2018-01-10T02:17:30.116Z,87.62
2018-01-10T02:18:30.386Z,87.43
2018-01-10T02:19:30.246Z,87.61
2018-01-10T02:20:30.675Z,88.01
2018-01-10T02:21:30.786Z,87.9
2018-01-10T02:22:30.320Z,87.61
2018-01-10T02:23:31.084Z,87.63
2018-01-10T02:24:30.580Z,87.62
2018-01-10T02:25:30.748Z,87.5
2018-01-10T02:26:30.533Z,87.53
2018-01-10T02:27:30.800Z,87.45
2018-01-10T02:28:30.912Z,87.36
2018-01-10T02:29:30.315Z,87.72
2018-01-10T02:30:30.552Z,87.89
2018-01-10T02:31:31.019Z,87.57
2018-01-10T02:32:30.758Z,87.31
2018-01-10T02:33:31.086Z,87.31
2018-01-10T02:34:30.352Z,86.95
2018-01-10T02:35:30.284Z,87.22
2018-01-10T02:36:30.508Z,87.27
2018-01-10T02:37:30.493Z,87.38
2018-01-10T02:38:30.684Z,87.52
2018-01-10T02:39:30.167Z,87.43
2018-01-10T02:40:30.570Z,87.62
2018-01-10T02:41:30.476Z,87.57
2018-01-10T02:42:30.849Z,87.93
2018-01-10T02:43:30.125Z,87.52
2018-01-10T02:44:30.414Z,87.57
2018-01-10T02:45:30.795Z,87.78
2018-01-10T02:46:31.029Z,87.53
2018-01-10T02:47:31.082Z,87.92
2018-01-10T02:48:30.569Z,87.69
2018-01-10T02:49:30.001Z,87.84
2018-01-10T02:50:30.243Z,87.71
2018-01-10T02:51:30.727Z,87.55
2018-01-10T02:52:30.172Z,87.58
2018-01-10T02:53:30.485Z,87.74
2018-01-10T02:54:30.988Z,87.44
2018-01-10T02:55:30.896Z,87.47
2018-01-10T02:56:30.224Z,87.9
2018-01-10T02:57:30.740Z,87.61
2018-01-10T02:58:30.056Z,87.63
2018-01-10T02:59:30.029Z,87.28
2018-01-10T03:00:30.342Z,87.23
2018-01-10T03:01:30.777Z,87.9
2018-01-10T03:02:30.490Z,87.86
2018-01-10T03:03:30.749Z,87.55
2018-01-10T03:04:30.597Z,87.64
2018-01-10T03:05:30.715Z,87.56
2018-01-10T03:06:30.517Z,87.67
2018-01-10T03:07:30.920Z,87.16
2018-01-10T03:08:30.116Z,87.17
2018-01-10T03:09:30.510Z,87.72
2018-01-10T03:10:30.899Z,87.46
2018-01-10T03:11:30.275Z,87.74
2018-01-10T03:12:30.486Z,87.65
2018-01-10T03:13:30.965Z,87.5
2018-01-10T03:14:30.427Z,87.49
2018-01-10T03:15:30.947Z,87.98
2018-01-10T03:16:30.141Z,87.5
2018-01-10T03:17:30.539Z,87.62
2018-01-10T03:18:30.749Z,87.74
2018-01-10T03:19:29.835Z,87.41
2018-01-10T03:20:30.503Z,87.65
2018-01-10T03:21:29.644Z,87.71
2018-01-10T03:22:30.008Z,87.37
2018-01-10T03:23:30.533Z,87.34
2018-01-10T03:24:30.107Z,87.31
2018-01-10T03:25:30.587Z,87.81
2018-01-10T03:26:30.625Z,87.65
2018-01-10T03:27:30.479Z,87.8
2018-01-10T03:28:29.692Z,87.58
2018-01-10T03:29:30.032Z,87.29
2018-01-10T03:30:30.175Z,87.9
2018-01-10T03:31:30.445Z,87.27
2018-01-10T03:32:29.705Z,87.18
2018-01-10T03:33:30.319Z,87.4
2018-01-10T03:34:29.770Z,87.42
2018-01-10T03:35:30.101Z,87.63
2018-01-10T03:36:30.100Z,87.96
2018-01-10T03:37:30.281Z,87.53
2018-01-10T03:38:30.450Z,87.59
2018-01-10T03:39:29.796Z,87.31
2018-01-10T03:40:29.718Z,87.6
2018-01-10T03:41:30.338Z,87.81
2018-01-10T03:42:29.793Z,87.93
2018-01-10T03:43:29.723Z,87.7
2018-01-10T03:44:30.023Z,87.71
2018-01-10T03:45:30.328Z,87.57
2018-01-10T03:46:30.404Z,87.25
2018-01-10T03:47:29.912Z,87.79
2018-01-10T03:48:30.247Z,87.53
2018-01-10T03:49:30.574Z,87.41
2018-01-10T03:50:30.094Z,87.42
2018-01-10T03:51:30.533Z,87.39
2018-01-10T03:52:29.984Z,87.02
2018-01-10T03:53:30.483Z,87.08
2018-01-10T03:54:29.771Z,87.46
2018-01-10T03:55:29.646Z,87.34
2018-01-10T03:56:29.946Z,87.63
2018-01-10T03:57:30.171Z,87.67
2018-01-10T03:58:29.954Z,87.38
2018-01-10T03:59:30.256Z,87.53
2018-01-10T04:00:29.979Z,87.44
2018-01-10T04:01:29.905Z,87.37
2018-01-10T04:02:30.140Z,87.87
2018-01-10T04:03:29.891Z,87.94
2018-01-10T04:04:30.159Z,87.81
2018-01-10T04:05:29.922Z,87.58
2018-01-10T04:06:30.191Z,87.81
2018-01-10T04:07:29.860Z,88
2018-01-10T04:08:29.895Z,87.64
2018-01-10T04:09:30.237Z,87.52
2018-01-10T04:10:29.856Z,87.14
2018-01-10T04:11:30.028Z,87.65
2018-01-10T04:12:29.918Z,87.62
2018-01-10T04:13:30.245Z,87.54
2018-01-10T04:14:30.433Z,87.64
2018-01-10T04:15:29.735Z,87.75
2018-01-10T04:16:29.633Z,87.86
2018-01-10T04:17:29.792Z,87.59
2018-01-10T04:18:29.882Z,88.2
2018-01-10T04:19:30.366Z,88.09
2018-01-10T04:20:29.665Z,87.58
2018-01-10T04:21:29.728Z,88.23
2018-01-10T04:22:30.284Z,87.64
2018-01-10T04:23:29.666Z,88.01
2018-01-10T04:24:30.058Z,88.13
2018-01-10T04:25:29.932Z,87.88
2018-01-10T04:26:30.211Z,87.68
2018-01-10T04:27:30.456Z,87.85
2018-01-10T04:28:29.917Z,87.84
2018-01-10T04:29:30.425Z,88.39
2018-01-10T04:30:30.264Z,87.91
2018-01-10T04:31:30.453Z,87.89
2018-01-10T04:32:30.420Z,87.83
2018-01-10T04:33:29.773Z,88.06
2018-01-10T04:34:29.872Z,87.71
2018-01-10T04:35:30.178Z,87.92
2018-01-10T04:36:30.405Z,87.76
2018-01-10T04:37:30.350Z,87.74
2018-01-10T04:38:30.092Z,87.9
2018-01-10T04:39:30.486Z,87.77
2018-01-10T04:40:30.202Z,88.11
2018-01-10T04:41:30.266Z,87.86
2018-01-10T04:42:30.560Z,87.65
2018-01-10T04:43:29.960Z,87.6
2018-01-10T04:44:30.252Z,87.33
2018-01-10T04:45:29.676Z,87.68
2018-01-10T04:46:29.960Z,87.44
2018-01-10T04:47:30.280Z,88.1
2018-01-10T04:48:30.145Z,87.11
2018-01-10T04:49:29.727Z,87.55
2018-01-10T04:50:29.897Z,87.15
2018-01-10T04:51:30.210Z,87.39
2018-01-10T04:52:30.559Z,87.62
2018-01-10T04:53:31.228Z,87.63
2018-01-10T04:54:30.648Z,87.35
2018-01-10T04:55:30.838Z,87.68
2018-01-10T04:56:30.213Z,87.58
2018-01-10T04:57:30.434Z,87.66
2018-01-10T04:58:30.556Z,87.58
2018-01-10T04:59:30.020Z,87.72
2018-01-10T05:00:30.211Z,87.6
2018-01-10T05:01:30.306Z,87.6
2018-01-10T05:02:30.730Z,87.73
2018-01-10T05:03:30.106Z,88
2018-01-10T05:04:30.306Z,87.54
2018-01-10T05:05:30.888Z,87.52
2018-01-10T05:06:30.300Z,87.98
2018-01-10T05:07:30.198Z,87.87
2018-01-10T05:08:30.490Z,88.53
2018-01-10T05:09:30.403Z,87.88
2018-01-10T05:10:30.647Z,87.65
2018-01-10T05:11:30.899Z,87.64
2018-01-10T05:12:30.441Z,87.43
2018-01-10T05:13:31.005Z,87.54
2018-01-10T05:14:30.268Z,87.6
2018-01-10T05:15:30.128Z,87.88
2018-01-10T05:16:30.318Z,87.74
2018-01-10T05:17:30.022Z,87.62
2018-01-10T05:18:31.618Z,87.62
2018-01-10T05:19:30.011Z,88.03
2018-01-10T05:20:30.324Z,88.34
2018-01-10T05:21:30.440Z,88.31
2018-01-10T05:22:30.916Z,88.14
2018-01-10T05:23:30.524Z,87.85
2018-01-10T05:24:30.972Z,87.73
2018-01-10T05:25:31.064Z,87.5
2018-01-10T05:26:30.631Z,87.97
2018-01-10T05:27:30.938Z,87.82
2018-01-10T05:28:30.570Z,88.06
2018-01-10T05:29:30.409Z,88.14
2018-01-10T05:30:30.853Z,87.94
2018-01-10T05:31:30.870Z,88.21
2018-01-10T05:32:31.305Z,87.95
2018-01-10T05:33:30.848Z,88.57
2018-01-10T05:34:31.014Z,88.3
2018-01-10T05:35:31.374Z,88.2
2018-01-10T05:36:31.104Z,88.45
2018-01-10T05:37:30.611Z,88.3
2018-01-10T05:38:31.032Z,88.27
2018-01-10T05:39:31.058Z,88.41
2018-01-10T05:40:30.347Z,88.08
2018-01-10T05:41:30.698Z,88.32
2018-01-10T05:42:31.013Z,87.86
2018-01-10T05:43:31.138Z,88.07
2018-01-10T05:44:31.086Z,88.41
2018-01-10T05:45:30.948Z,88.22
2018-01-10T05:46:30.369Z,88.7
2018-01-10T05:47:30.767Z,88.24
2018-01-10T05:48:31.144Z,88.71
2018-01-10T05:49:30.705Z,88.47
2018-01-10T05:50:31.225Z,88.51
2018-01-10T05:51:31.192Z,88.43
2018-01-10T05:52:30.483Z,88.36
2018-01-10T05:53:30.369Z,88.69
2018-01-10T05:54:30.804Z,88.44
2018-01-10T05:55:30.935Z,88.67
2018-01-10T05:56:30.595Z,88.72
2018-01-10T05:57:30.382Z,88.59
2018-01-10T05:58:30.739Z,88.51
2018-01-10T05:59:30.181Z,88.34
2018-01-10T06:00:30.354Z,88.44
2018-01-10T06:01:30.633Z,88.75
2018-01-10T06:02:30.306Z,88.68
2018-01-10T06:03:31.077Z,88.88
2018-01-10T06:04:30.275Z,89
2018-01-10T06:05:30.722Z,88.83
2018-01-10T06:06:31.046Z,89.02
2018-01-10T06:07:30.714Z,88.7
2018-01-10T06:08:31.039Z,88.66
2018-01-10T06:09:30.727Z,88.54
2018-01-10T06:10:31.002Z,88.38
2018-01-10T06:11:30.580Z,88.61
2018-01-10T06:12:30.382Z,88.26
2018-01-10T06:13:30.943Z,88.16
2018-01-10T06:14:30.549Z,88.4
2018-01-10T06:15:30.645Z,88.52
2018-01-10T06:16:31.034Z,88.8
2018-01-10T06:17:30.669Z,88.67
2018-01-10T06:18:30.867Z,88.23
2018-01-10T06:19:30.615Z,88.45
2018-01-10T06:20:30.951Z,88.29
2018-01-10T06:21:31.142Z,88.47
2018-01-10T06:22:30.804Z,88.41
2018-01-10T06:23:30.229Z,88.53
2018-01-10T06:24:30.408Z,88.69
2018-01-10T06:25:30.972Z,88.27
2018-01-10T06:26:30.667Z,88.31
2018-01-10T06:27:30.150Z,88.5
2018-01-10T06:28:30.769Z,88.17
2018-01-10T06:29:30.750Z,88.46
2018-01-10T06:30:30.232Z,88.64
2018-01-10T06:31:30.878Z,88.5
2018-01-10T06:32:30.458Z,88.64
2018-01-10T06:33:30.711Z,88.39
2018-01-10T06:34:31.080Z,88.2
2018-01-10T06:35:30.617Z,88.29
2018-01-10T06:36:31.046Z,88.45
2018-01-10T06:37:30.405Z,88.25
2018-01-10T06:38:30.924Z,88.4
2018-01-10T06:39:30.586Z,88.27
2018-01-10T06:40:30.053Z,88.4
2018-01-10T06:41:30.431Z,88.54
2018-01-10T06:42:31.014Z,88.8
2018-01-10T06:43:30.526Z,88.61
2018-01-10T06:44:30.766Z,88.76
2018-01-10T06:45:30.166Z,88.43
2018-01-10T06:46:30.787Z,88.33
2018-01-10T06:47:30.273Z,88.6
2018-01-10T06:48:30.907Z,88.64
2018-01-10T06:49:30.824Z,88.17
2018-01-10T06:50:30.537Z,88.31
2018-01-10T06:51:31.056Z,88.2
2018-01-10T06:52:30.272Z,88.27
2018-01-10T06:53:30.605Z,88.03
2018-01-10T06:54:30.965Z,87.92
2018-01-10T06:55:30.403Z,88.58
2018-01-10T06:56:30.344Z,88.51
2018-01-10T06:57:30.649Z,88.05
2018-01-10T06:58:30.873Z,88.41
2018-01-10T06:59:31.097Z,88.38
2018-01-10T07:00:30.848Z,88.72
2018-01-10T07:01:30.923Z,88.24
2018-01-10T07:02:30.249Z,88.18
2018-01-10T07:03:31.176Z,88.37
2018-01-10T07:04:30.483Z,88.25
2018-01-10T07:05:30.495Z,88.34
2018-01-10T07:06:30.388Z,88.45
2018-01-10T07:07:30.566Z,88.11
2018-01-10T07:08:30.415Z,88.41
2018-01-10T07:09:30.726Z,88.44
2018-01-10T07:10:30.928Z,88.49
2018-01-10T07:11:30.586Z,88.49
2018-01-10T07:12:30.885Z,88.52
2018-01-10T07:13:30.808Z,88.05
2018-01-10T07:14:31.150Z,88.47
2018-01-10T07:15:30.631Z,87.99
2018-01-10T07:16:30.831Z,88.34
2018-01-10T07:17:30.887Z,88.31
2018-01-10T07:18:30.870Z,88.19
2018-01-10T07:19:31.152Z,88.1
2018-01-10T07:20:30.308Z,88.26
2018-01-10T07:21:30.712Z,88.5
2018-01-10T07:22:30.589Z,88.34
2018-01-10T07:23:30.308Z,88.35
2018-01-10T07:24:29.633Z,88.49
2018-01-10T07:25:30.303Z,88.26
2018-01-10T07:26:29.780Z,88.24
2018-01-10T07:27:29.911Z,88.29
2018-01-10T07:28:29.887Z,88.3
2018-01-10T07:29:30.292Z,88.44
2018-01-10T07:30:29.658Z,87.89
2018-01-10T07:31:30.089Z,87.79
2018-01-10T07:32:29.881Z,87.99
2018-01-10T07:33:30.493Z,88.24
2018-01-10T07:34:29.909Z,87.82
2018-01-10T07:35:30.101Z,88.15
2018-01-10T07:36:29.552Z,87.87
2018-01-10T07:37:29.602Z,87.78
2018-01-10T07:38:29.776Z,88.06
2018-01-10T07:39:30.203Z,88.05
2018-01-10T07:40:29.789Z,87.95
2018-01-10T07:41:30.154Z,87.91
2018-01-10T07:42:30.513Z,87.73
2018-01-10T07:43:29.725Z,87.92
2018-01-10T07:44:29.825Z,88.19
2018-01-10T07:45:29.828Z,88.17
2018-01-10T07:46:29.908Z,88.46
2018-01-10T07:47:30.424Z,87.73
2018-01-10T07:48:29.767Z,87.33
2018-01-10T07:49:29.832Z,87.18
2018-01-10T07:50:30.035Z,87.24
2018-01-10T07:51:30.168Z,87.56
2018-01-10T07:52:30.279Z,87.48
2018-01-10T07:53:30.042Z,87.45
2018-01-10T07:54:30.055Z,87.33
2018-01-10T07:55:30.516Z,87.01
2018-01-10T07:56:30.338Z,86.89
2018-01-10T07:57:30.737Z,86.95
2018-01-10T07:58:30.273Z,86.75
2018-01-10T07:59:30.240Z,86.95
2018-01-10T08:00:30.483Z,86.57
2018-01-10T08:01:30.702Z,86.93
2018-01-10T08:02:30.181Z,86.78
2018-01-10T08:03:30.429Z,86.88
2018-01-10T08:04:30.566Z,86.76
2018-01-10T08:05:29.962Z,86.92
2018-01-10T08:06:30.057Z,86.58
2018-01-10T08:07:30.250Z,86.1
2018-01-10T08:08:29.936Z,86.43
2018-01-10T08:09:30.914Z,86.25
2018-01-10T08:10:30.745Z,86.16
2018-01-10T08:11:29.999Z,86.54
2018-01-10T08:12:30.492Z,86.26
2018-01-10T08:13:30.904Z,86.21
2018-01-10T08:14:30.348Z,86.15
2018-01-10T08:15:30.811Z,85.89
2018-01-10T08:16:30.430Z,86.46
2018-01-10T08:17:30.497Z,86.43
2018-01-10T08:18:30.149Z,86.32
2018-01-10T08:19:30.643Z,86.32
2018-01-10T08:20:30.917Z,86.21
2018-01-10T08:21:30.094Z,86.21
2018-01-10T08:22:30.124Z,85.66
2018-01-10T08:23:30.329Z,85.83
2018-01-10T08:24:31.189Z,85.79
2018-01-10T08:25:30.672Z,86.14
2018-01-10T08:26:30.963Z,86.11
2018-01-10T08:27:30.363Z,86.02
2018-01-10T08:28:30.474Z,85.98
2018-01-10T08:29:30.698Z,85.91
2018-01-10T08:30:31.076Z,85.88
2018-01-10T08:31:30.514Z,86.32
2018-01-10T08:32:31.016Z,86.06
2018-01-10T08:33:30.251Z,86.33
2018-01-10T08:34:30.415Z,85.87
2018-01-10T08:35:31.212Z,86.24
2018-01-10T08:36:30.605Z,85.84
2018-01-10T08:37:30.918Z,85.92
2018-01-10T08:38:31.094Z,85.81
2018-01-10T08:39:30.391Z,85.98
2018-01-10T08:40:30.682Z,86.04
2018-01-10T08:41:31.044Z,85.85
2018-01-10T08:42:30.783Z,86.06
2018-01-10T08:43:30.511Z,85.45
2018-01-10T08:44:30.705Z,85.76
2018-01-10T08:45:30.616Z,85.72
2018-01-10T08:46:30.837Z,85.37
2018-01-10T08:47:30.269Z,85.38
2018-01-10T08:48:30.377Z,85.15
2018-01-10T08:49:31.211Z,85.43
2018-01-10T08:50:30.403Z,85.28
2018-01-10T08:51:31.264Z,85.29
2018-01-10T08:52:30.742Z,85.23
2018-01-10T08:53:30.545Z,85.41
2018-01-10T08:54:30.018Z,85.54
2018-01-10T08:55:29.866Z,85.46
2018-01-10T08:56:29.463Z,85.73
2018-01-10T08:57:29.507Z,85.32
2018-01-10T08:58:29.764Z,85.55
2018-01-10T08:59:30.237Z,85.13
2018-01-10T09:00:29.642Z,85.16
2018-01-10T09:01:29.763Z,85.43
2018-01-10T09:02:29.872Z,85.5
2018-01-10T09:03:30.288Z,85.26
2018-01-10T09:04:30.034Z,85.19
2018-01-10T09:05:30.438Z,85.16
2018-01-10T09:06:29.864Z,85.23
2018-01-10T09:07:30.407Z,85.07
2018-01-10T09:08:30.035Z,85.08
2018-01-10T09:09:30.208Z,85.03
2018-01-10T09:10:30.402Z,84.81
2018-01-10T09:11:29.877Z,85.16
2018-01-10T09:12:30.026Z,85.2
2018-01-10T09:13:30.100Z,84.71
2018-01-10T09:14:30.276Z,85.11
2018-01-10T09:15:29.601Z,84.87
2018-01-10T09:16:29.727Z,84.93
2018-01-10T09:17:29.864Z,84.76
2018-01-10T09:18:30.364Z,85.16
2018-01-10T09:19:30.013Z,84.79
2018-01-10T09:20:30.385Z,85.37
2018-01-10T09:21:30.020Z,85.11
2018-01-10T09:22:29.535Z,85.02
2018-01-10T09:23:29.681Z,85.34
2018-01-10T09:24:29.904Z,84.74
2018-01-10T09:25:30.053Z,84.16
2018-01-10T09:26:30.629Z,84.19
2018-01-10T09:27:30.021Z,84.46
2018-01-10T09:28:30.306Z,84.08
2018-01-10T09:29:30.463Z,84.23
2018-01-10T09:30:30.692Z,84.08
2018-01-10T09:31:30.545Z,84.36
2018-01-10T09:32:30.742Z,84.58
2018-01-10T09:33:30.148Z,84.07
2018-01-10T09:34:30.036Z,84.14
2018-01-10T09:35:30.084Z,84.47
2018-01-10T09:36:29.983Z,84.76
2018-01-10T09:37:30.820Z,84.34
2018-01-10T09:38:30.532Z,83.87
2018-01-10T09:39:30.851Z,84.19
2018-01-10T09:40:30.196Z,84.23
2018-01-10T09:41:30.380Z,84.14
2018-01-10T09:42:30.342Z,84.23
2018-01-10T09:43:30.684Z,84.19
2018-01-10T09:44:30.451Z,84.03
2018-01-10T09:45:30.840Z,84.17
2018-01-10T09:46:30.118Z,84.42
2018-01-10T09:47:30.367Z,84.25
2018-01-10T09:48:30.480Z,84.19
2018-01-10T09:49:30.627Z,83.95
2018-01-10T09:50:30.346Z,84.06
2018-01-10T09:51:30.521Z,84.15
2018-01-10T09:52:30.353Z,83.94
2018-01-10T09:53:30.520Z,83.96
2018-01-10T09:54:30.117Z,84.05
2018-01-10T09:55:30.772Z,84.34
2018-01-10T09:56:30.964Z,83.8
2018-01-10T09:57:30.899Z,83.62
2018-01-10T09:58:30.249Z,83.1
2018-01-10T09:59:30.538Z,82.97
2018-01-10T10:00:30.882Z,83.17
2018-01-10T10:01:30.328Z,83.29
2018-01-10T10:02:30.626Z,83.43
2018-01-10T10:03:30.579Z,83.4
2018-01-10T10:04:30.776Z,83.17
2018-01-10T10:05:30.718Z,83.04
2018-01-10T10:06:30.948Z,83.34
2018-01-10T10:07:30.712Z,83.02
2018-01-10T10:08:30.910Z,82.89
2018-01-10T10:09:30.442Z,83.48
2018-01-10T10:10:30.997Z,83.23
2018-01-10T10:11:30.187Z,83.16
2018-01-10T10:12:30.867Z,82.92
2018-01-10T10:13:30.289Z,83.14
2018-01-10T10:14:30.605Z,82.87
2018-01-10T10:15:30.639Z,83.07
2018-01-10T10:16:30.914Z,82.98
2018-01-10T10:17:30.772Z,83.05
2018-01-10T10:18:30.528Z,83
2018-01-10T10:19:30.794Z,82.58
2018-01-10T10:20:30.477Z,82.84
2018-01-10T10:21:31.244Z,82.66
2018-01-10T10:22:30.736Z,82.68
2018-01-10T10:23:30.575Z,82.72
2018-01-10T10:24:30.328Z,82.51
2018-01-10T10:25:30.692Z,82.52
2018-01-10T10:26:30.765Z,82.54
2018-01-10T10:27:31.179Z,82.82
2018-01-10T10:28:30.495Z,82.06
2018-01-10T10:29:30.939Z,82.42
2018-01-10T10:30:30.280Z,82.8
2018-01-10T10:31:30.616Z,82.45
2018-01-10T10:32:31.038Z,82.42
2018-01-10T10:33:30.504Z,82.7
2018-01-10T10:34:30.290Z,81.34
2018-01-10T10:35:30.459Z,82.12
2018-01-10T10:36:31.110Z,81.73
2018-01-10T10:37:30.453Z,81.59
2018-01-10T10:38:30.903Z,81.67
2018-01-10T10:39:31.149Z,81.75
2018-01-10T10:40:30.499Z,80.91
2018-01-10T10:41:30.535Z,80.95
2018-01-10T10:42:30.908Z,81.16
2018-01-10T10:43:31.416Z,80.87
2018-01-10T10:44:30.864Z,80.33
2018-01-10T10:45:30.286Z,80.99
2018-01-10T10:46:30.715Z,80.43
2018-01-10T10:47:30.909Z,80.56
2018-01-10T10:48:30.379Z,80.64
2018-01-10T10:49:30.794Z,80.74
2018-01-10T10:50:30.954Z,79.92
2018-01-10T10:51:30.424Z,80.33
2018-01-10T10:52:30.469Z,80.5
2018-01-10T10:53:30.770Z,79.92
2018-01-10T10:54:30.740Z,79.77
2018-01-10T10:55:30.043Z,79.86
2018-01-10T10:56:30.509Z,79.72
2018-01-10T10:57:30.597Z,79.56
2018-01-10T10:58:30.332Z,78.99
2018-01-10T10:59:30.562Z,79
2018-01-10T11:00:29.743Z,78.49
2018-01-10T11:01:29.918Z,79.02
2018-01-10T11:02:30.435Z,79.11
2018-01-10T11:03:30.352Z,79.56
2018-01-10T11:04:30.269Z,79.22
2018-01-10T11:05:30.439Z,79.17
2018-01-10T11:06:29.759Z,78.8
2018-01-10T11:07:29.884Z,78.63
2018-01-10T11:08:30.192Z,78.56
2018-01-10T11:09:30.405Z,77.41
2018-01-10T11:10:30.566Z,77.25
2018-01-10T11:11:29.875Z,77.83
2018-01-10T11:12:29.773Z,78.35
2018-01-10T11:13:30.076Z,78.22
2018-01-10T11:14:30.449Z,77.51
2018-01-10T11:15:30.546Z,78.11
2018-01-10T11:16:30.698Z,77.58
2018-01-10T11:17:29.639Z,78.11
2018-01-10T11:18:29.897Z,77.86
2018-01-10T11:19:29.996Z,77.65
2018-01-10T11:20:30.276Z,78.03
2018-01-10T11:21:30.198Z,76.35
2018-01-10T11:22:30.622Z,76.89
2018-01-10T11:23:29.819Z,76.38
2018-01-10T11:24:29.996Z,76.72
2018-01-10T11:25:31.468Z,76.98
2018-01-10T11:26:31.242Z,76.75
2018-01-10T11:27:29.898Z,76.34
2018-01-10T11:28:30.013Z,76.06
2018-01-10T11:29:30.334Z,76.35
2018-01-10T11:30:30.564Z,76.51
2018-01-10T11:31:30.776Z,76.46
2018-01-10T11:32:30.618Z,76.33
2018-01-10T11:33:30.147Z,76.12
2018-01-10T11:34:30.275Z,75.96
2018-01-10T11:35:30.395Z,75.55
2018-01-10T11:36:30.183Z,75.4
2018-01-10T11:37:30.641Z,75.73
2018-01-10T11:38:30.249Z,76.5
2018-01-10T11:39:30.429Z,76.66
2018-01-10T11:40:30.719Z,76.25
2018-01-10T11:41:30.618Z,76.58
2018-01-10T11:42:29.915Z,76.99
2018-01-10T11:43:30.433Z,77.65
2018-01-10T11:44:30.688Z,77.45
2018-01-10T11:45:30.300Z,77.07
2018-01-10T11:46:30.437Z,77.01
2018-01-10T11:47:30.750Z,76.07
2018-01-10T11:48:30.135Z,76.01
2018-01-10T11:49:30.633Z,76.23
2018-01-10T11:50:30.034Z,76.04
2018-01-10T11:51:30.247Z,76.24
2018-01-10T11:52:30.486Z,76.21
2018-01-10T11:53:30.740Z,75.9
2018-01-10T11:54:29.920Z,75.57
2018-01-10T11:55:30.782Z,75.11
2018-01-10T11:56:30.244Z,75.51
2018-01-10T11:57:31.710Z,75.09
2018-01-10T11:58:30.265Z,75.4
2018-01-10T11:59:30.360Z,75.33
2018-01-10T12:00:30.874Z,74.86
2018-01-10T12:01:31.142Z,73.93
2018-01-10T12:02:30.617Z,74.37
2018-01-10T12:03:31.157Z,74.08
2018-01-10T12:04:30.552Z,73.68
2018-01-10T12:05:30.319Z,73.71
2018-01-10T12:06:30.696Z,73.78
2018-01-10T12:07:30.290Z,73.49
2018-01-10T12:08:30.955Z,73.02
2018-01-10T12:09:30.221Z,72.39
2018-01-10T12:10:30.207Z,72.02
2018-01-10T12:11:30.811Z,71.76
2018-01-10T12:12:31.087Z,71.83
2018-01-10T12:13:31.091Z,71.71
2018-01-10T12:14:30.722Z,71.99
2018-01-10T12:15:30.829Z,71.59
2018-01-10T12:16:30.319Z,71.89
2018-01-10T12:17:30.401Z,72.6
2018-01-10T12:18:30.380Z,71.79
2018-01-10T12:19:31.184Z,71.14
2018-01-10T12:20:30.714Z,72.36
2018-01-10T12:21:30.521Z,72.17
2018-01-10T12:22:31.052Z,71.63
2018-01-10T12:23:30.649Z,71.59
2018-01-10T12:24:30.991Z,70.91
2018-01-10T12:25:30.592Z,71.26
2018-01-10T12:26:31.032Z,71.39
2018-01-10T12:27:31.177Z,70.91
2018-01-10T12:28:30.985Z,71.26
2018-01-10T12:29:30.225Z,70.63
2018-01-10T12:30:30.801Z,71.06
2018-01-10T12:31:30.204Z,72.23
2018-01-10T12:32:30.413Z,71.89
2018-01-10T12:33:31.003Z,70.71
2018-01-10T12:34:30.058Z,71.24
2018-01-10T12:35:30.867Z,71.08
2018-01-10T12:36:30.452Z,71.46
2018-01-10T12:37:30.764Z,71.2
2018-01-10T12:38:30.399Z,71.86
2018-01-10T12:39:30.921Z,72.14
2018-01-10T12:40:30.352Z,71.96
2018-01-10T12:41:30.111Z,71.97
2018-01-10T12:42:30.437Z,71.28
2018-01-10T12:43:30.662Z,71.59
2018-01-10T12:44:30.987Z,71.48
2018-01-10T12:45:30.406Z,71.33
2018-01-10T12:46:30.408Z,71.63
2018-01-10T12:47:30.806Z,71.47
2018-01-10T12:48:30.251Z,71.72
2018-01-10T12:49:30.576Z,71.87
2018-01-10T12:50:30.483Z,71.67
2018-01-10T12:51:30.812Z,71.47
2018-01-10T12:52:30.089Z,71.61
2018-01-10T12:53:30.387Z,71.67
2018-01-10T12:54:30.883Z,71.02
2018-01-10T12:55:30.261Z,70.8
2018-01-10T12:56:30.479Z,71.33
2018-01-10T12:57:30.542Z,71.8
2018-01-10T12:58:30.566Z,71.72
2018-01-10T12:59:30.990Z,72